Känerkinden
Datum - Zeit
TemperaturTaupunktFeuchteSolar Wind aus Richtung WindböenLuftdruck (QFF)RegenRegenstärkeTrend
06.09.2026 - 00.00Uhr15.6 °C13.4 °C87 %0.0 W/m²0.0 km/hOst-NO0.0 km/h1023.4 hPa0.0 mm0.0 mm/hsonnig
06.09.2026 - 00.05Uhr15.6 °C13.4 °C87 %0.0 W/m²0.0 km/hOst-NO0.0 km/h1023.4 hPa0.0 mm0.0 mm/hwechselhaft
06.09.2026 - 00.10Uhr15.7 °C13.5 °C87 %0.0 W/m²0.0 km/hOst-NO0.0 km/h1023.5 hPa0.0 mm0.0 mm/hwechselhaft
06.09.2026 - 00.15Uhr15.7 °C13.5 °C87 %0.0 W/m²2.2 km/hOst-SO6.5 km/h1023.4 hPa0.0 mm0.0 mm/hwechselhaft
06.09.2026 - 00.20Uhr15.6 °C13.4 °C87 %0.0 W/m²0.0 km/hOst-SO0.0 km/h1023.4 hPa0.0 mm0.0 mm/hwechselhaft
06.09.2026 - 00.25Uhr15.4 °C13.2 °C87 %0.0 W/m²0.0 km/hOst-SO0.0 km/h1023.4 hPa0.0 mm0.0 mm/hwechselhaft
06.09.2026 - 00.30Uhr15.4 °C13.3 °C88 %0.0 W/m²2.2 km/hNordosten4.7 km/h1023.5 hPa0.0 mm0.0 mm/hwechselhaft
06.09.2026 - 00.35Uhr15.7 °C13.6 °C87 %0.0 W/m²1.4 km/hNordosten4.7 km/h1023.5 hPa0.0 mm0.0 mm/hwechselhaft
06.09.2026 - 00.40Uhr15.7 °C13.5 °C87 %0.0 W/m²0.0 km/hNordosten0.0 km/h1023.4 hPa0.0 mm0.0 mm/hwechselhaft
06.09.2026 - 00.45Uhr15.7 °C13.5 °C87 %0.0 W/m²2.5 km/hOsten4.7 km/h1023.5 hPa0.0 mm0.0 mm/hwechselhaft
06.09.2026 - 00.50Uhr15.7 °C13.4 °C86 %0.0 W/m²0.7 km/hOsten3.2 km/h1023.5 hPa0.0 mm0.0 mm/hwechselhaft
06.09.2026 - 00.55Uhr15.5 °C13.3 °C87 %0.0 W/m²0.1 km/hOsten1.4 km/h1023.5 hPa0.0 mm0.0 mm/hwechselhaft
06.09.2026 - 01.00Uhr15.5 °C13.3 °C87 %0.0 W/m²0.0 km/hOsten0.0 km/h1023.5 hPa0.0 mm0.0 mm/hwechselhaft
06.09.2026 - 01.05Uhr15.4 °C13.2 °C87 %0.0 W/m²0.0 km/hOsten0.0 km/h1023.4 hPa0.0 mm0.0 mm/hwechselhaft
06.09.2026 - 01.10Uhr15.3 °C13.1 °C87 %0.0 W/m²0.0 km/hOsten0.0 km/h1023.4 hPa0.0 mm0.0 mm/hwechselhaft
06.09.2026 - 01.15Uhr15.2 °C13.2 °C88 %0.0 W/m²0.0 km/hOsten0.0 km/h1023.4 hPa0.0 mm0.0 mm/hwechselhaft
06.09.2026 - 01.20Uhr15.2 °C13.2 °C88 %0.0 W/m²0.0 km/hOsten0.0 km/h1023.5 hPa0.0 mm0.0 mm/hwechselhaft
06.09.2026 - 01.25Uhr15.2 °C13.2 °C88 %0.0 W/m²0.0 km/hOsten0.0 km/h1023.5 hPa0.0 mm0.0 mm/hwechselhaft
06.09.2026 - 01.30Uhr15.1 °C13.1 °C88 %0.0 W/m²0.0 km/hOsten0.0 km/h1023.6 hPa0.0 mm0.0 mm/hwechselhaft
06.09.2026 - 01.35Uhr14.9 °C12.9 °C88 %0.0 W/m²0.0 km/hOsten0.0 km/h1023.6 hPa0.0 mm0.0 mm/hwechselhaft
06.09.2026 - 01.40Uhr14.7 °C12.7 °C88 %0.0 W/m²0.0 km/hOsten0.0 km/h1023.6 hPa0.0 mm0.0 mm/hwechselhaft
06.09.2026 - 01.45Uhr14.7 °C12.9 °C89 %0.0 W/m²0.0 km/hOsten0.0 km/h1023.5 hPa0.0 mm0.0 mm/hwechselhaft
06.09.2026 - 01.50Uhr14.9 °C13.1 °C89 %0.0 W/m²0.0 km/hOsten0.0 km/h1023.5 hPa0.0 mm0.0 mm/hwechselhaft
06.09.2026 - 01.55Uhr15.0 °C13.0 °C88 %0.0 W/m²0.0 km/hOsten0.0 km/h1023.4 hPa0.0 mm0.0 mm/hwechselhaft
06.09.2026 - 02.00Uhr14.7 °C12.7 °C88 %0.0 W/m²0.0 km/hOsten0.0 km/h1023.5 hPa0.0 mm0.0 mm/hwechselhaft
06.09.2026 - 02.05Uhr14.7 °C12.8 °C89 %0.0 W/m²0.0 km/hOsten0.0 km/h1023.4 hPa0.0 mm0.0 mm/hwechselhaft
06.09.2026 - 02.10Uhr14.5 °C12.5 °C88 %0.0 W/m²0.0 km/hOsten0.0 km/h1023.4 hPa0.0 mm0.0 mm/hwechselhaft
06.09.2026 - 02.15Uhr14.3 °C12.6 °C90 %0.0 W/m²0.0 km/hOsten0.0 km/h1023.4 hPa0.0 mm0.0 mm/hwechselhaft
06.09.2026 - 02.20Uhr14.3 °C12.6 °C89 %0.0 W/m²0.0 km/hOsten0.0 km/h1023.3 hPa0.0 mm0.0 mm/hwechselhaft
06.09.2026 - 02.25Uhr14.2 °C12.5 °C89 %0.0 W/m²0.0 km/hOsten0.0 km/h1023.3 hPa0.0 mm0.0 mm/hwechselhaft
06.09.2026 - 02.30Uhr14.1 °C12.3 °C89 %0.0 W/m²0.0 km/hOsten0.0 km/h1023.3 hPa0.0 mm0.0 mm/hwechselhaft
06.09.2026 - 02.35Uhr14.2 °C12.6 °C90 %0.0 W/m²0.0 km/hOsten0.0 km/h1023.2 hPa0.0 mm0.0 mm/hwechselhaft
06.09.2026 - 02.40Uhr14.2 °C12.6 °C90 %0.0 W/m²0.0 km/hOsten0.0 km/h1023.3 hPa0.0 mm0.0 mm/hwechselhaft
06.09.2026 - 02.45Uhr14.2 °C12.6 °C90 %0.0 W/m²0.0 km/hOsten0.0 km/h1023.3 hPa0.0 mm0.0 mm/hwechselhaft
06.09.2026 - 02.50Uhr14.2 °C12.6 °C90 %0.0 W/m²0.0 km/hOsten0.0 km/h1023.2 hPa0.0 mm0.0 mm/hwechselhaft
06.09.2026 - 02.55Uhr14.3 °C12.7 °C90 %0.0 W/m²0.0 km/hOsten0.0 km/h1023.2 hPa0.0 mm0.0 mm/hwechselhaft
06.09.2026 - 03.00Uhr14.3 °C12.7 °C90 %0.0 W/m²0.0 km/hOsten0.0 km/h1023.2 hPa0.0 mm0.0 mm/hwechselhaft
06.09.2026 - 03.05Uhr14.3 °C12.7 °C90 %0.0 W/m²0.0 km/hOsten0.0 km/h1023.3 hPa0.0 mm0.0 mm/hwechselhaft
06.09.2026 - 03.10Uhr14.3 °C12.7 °C90 %0.0 W/m²0.0 km/hOsten0.0 km/h1023.3 hPa0.0 mm0.0 mm/hwechselhaft
06.09.2026 - 03.15Uhr14.2 °C12.5 °C90 %0.0 W/m²0.0 km/hOsten0.0 km/h1023.4 hPa0.0 mm0.0 mm/hwechselhaft
06.09.2026 - 03.20Uhr14.3 °C12.8 °C90 %0.0 W/m²0.0 km/hOsten0.0 km/h1023.4 hPa0.0 mm0.0 mm/hwechselhaft
06.09.2026 - 03.25Uhr14.3 °C12.7 °C90 %0.0 W/m²0.0 km/hOsten0.0 km/h1023.4 hPa0.0 mm0.0 mm/hwechselhaft
06.09.2026 - 03.30Uhr14.1 °C12.4 °C89 %0.0 W/m²0.0 km/hOsten0.0 km/h1023.4 hPa0.0 mm0.0 mm/hwechselhaft
06.09.2026 - 03.35Uhr14.1 °C12.6 °C90 %0.0 W/m²0.0 km/hOsten0.0 km/h1023.4 hPa0.0 mm0.0 mm/hwechselhaft
06.09.2026 - 03.40Uhr14.2 °C12.6 °C90 %0.0 W/m²0.0 km/hOsten0.0 km/h1023.5 hPa0.0 mm0.0 mm/hwechselhaft
06.09.2026 - 03.45Uhr14.0 °C12.3 °C90 %0.0 W/m²0.0 km/hOsten0.0 km/h1023.4 hPa0.0 mm0.0 mm/hwechselhaft
06.09.2026 - 03.50Uhr13.7 °C12.0 °C90 %0.0 W/m²0.0 km/hOsten0.0 km/h1023.4 hPa0.0 mm0.0 mm/hwechselhaft
06.09.2026 - 03.55Uhr13.7 °C12.1 °C90 %0.0 W/m²0.0 km/hOsten0.0 km/h1023.4 hPa0.0 mm0.0 mm/hwechselhaft